createdAt,value
2018-12-19T00:02:02.907Z,1.80
2018-12-19T00:06:41.878Z,1.90
2018-12-19T00:11:20.713Z,1.90
2018-12-19T00:15:59.686Z,1.90
2018-12-19T00:20:40.022Z,1.90
2018-12-19T00:25:20.237Z,1.90
2018-12-19T00:29:58.921Z,1.80
2018-12-19T00:34:37.637Z,1.80
2018-12-19T00:39:16.484Z,1.80
2018-12-19T00:43:55.121Z,1.90
2018-12-19T00:48:34.707Z,2.00
2018-12-19T00:53:13.697Z,2.10
2018-12-19T00:57:52.429Z,2.10
2018-12-19T01:02:31.260Z,2.00
2018-12-19T01:07:10.152Z,2.10
2018-12-19T01:11:49.379Z,2.20
2018-12-19T01:16:28.253Z,2.20
2018-12-19T01:21:08.095Z,2.30
2018-12-19T01:25:47.176Z,2.30
2018-12-19T01:30:26.750Z,2.40
2018-12-19T01:35:05.788Z,2.40
2018-12-19T01:39:44.645Z,2.40
2018-12-19T01:44:23.367Z,2.50
2018-12-19T01:49:02.104Z,2.50
2018-12-19T01:53:40.945Z,2.50
2018-12-19T01:58:19.890Z,2.60
2018-12-19T02:02:58.869Z,2.70
2018-12-19T02:07:37.549Z,2.80
2018-12-19T02:12:16.324Z,2.90
2018-12-19T02:16:55.189Z,2.90
2018-12-19T02:21:36.517Z,3.00
2018-12-19T02:26:15.301Z,3.10
2018-12-19T02:30:54.150Z,3.20
2018-12-19T02:35:33.008Z,3.40
2018-12-19T02:40:11.802Z,3.60
2018-12-19T02:44:52.983Z,3.80
2018-12-19T02:49:31.920Z,4.00
2018-12-19T02:54:11.673Z,4.10
2018-12-19T02:58:51.485Z,4.30
2018-12-19T03:03:30.372Z,4.40
2018-12-19T03:08:10.401Z,4.60
2018-12-19T03:12:49.746Z,4.70
2018-12-19T03:17:28.585Z,4.80
2018-12-19T03:22:07.441Z,5.00
2018-12-19T03:26:46.299Z,5.10
2018-12-19T03:31:26.421Z,5.20
2018-12-19T03:36:05.170Z,5.20
2018-12-19T03:40:44.110Z,5.30
2018-12-19T03:45:24.705Z,5.30
2018-12-19T03:50:03.818Z,5.30
2018-12-19T03:54:43.950Z,5.30
2018-12-19T03:59:22.973Z,5.30
2018-12-19T04:04:03.124Z,5.40
2018-12-19T04:08:41.951Z,5.40
2018-12-19T04:13:20.704Z,5.40
2018-12-19T04:17:59.629Z,5.40
2018-12-19T04:22:38.369Z,5.50
2018-12-19T04:27:17.216Z,5.50
2018-12-19T04:31:56.035Z,5.50
2018-12-19T04:36:34.995Z,5.60
2018-12-19T04:41:14.165Z,5.70
2018-12-19T04:45:54.627Z,5.70
2018-12-19T04:50:33.564Z,5.70
2018-12-19T04:55:12.382Z,5.80
2018-12-19T04:59:51.204Z,5.80
2018-12-19T05:04:29.957Z,5.80
2018-12-19T05:09:08.873Z,5.90
2018-12-19T05:13:47.809Z,5.90
2018-12-19T05:18:26.457Z,6.00
2018-12-19T05:23:05.281Z,6.00
2018-12-19T05:27:44.672Z,6.00
2018-12-19T05:37:08.767Z,6.00
2018-12-19T05:41:47.526Z,6.10
2018-12-19T05:46:26.451Z,6.10
2018-12-19T05:51:05.187Z,6.10
2018-12-19T05:55:44.679Z,6.20
2018-12-19T06:00:35.702Z,6.20
2018-12-19T06:05:15.191Z,6.30
2018-12-19T06:10:03.301Z,6.40
2018-12-19T06:14:42.234Z,6.40
2018-12-19T06:19:21.008Z,6.40
2018-12-19T06:23:59.893Z,6.50
2018-12-19T06:28:38.788Z,6.50
2018-12-19T06:33:17.538Z,6.50
2018-12-19T06:37:56.400Z,6.50
2018-12-19T06:42:35.274Z,6.60
2018-12-19T06:47:13.973Z,6.60
2018-12-19T06:51:52.705Z,6.70
2018-12-19T06:56:31.519Z,6.70
2018-12-19T07:01:11.804Z,6.80
2018-12-19T07:05:50.617Z,6.80
2018-12-19T07:10:30.216Z,6.80
2018-12-19T07:15:09.372Z,6.80
2018-12-19T07:19:48.189Z,6.90
2018-12-19T07:24:26.998Z,6.90
2018-12-19T07:29:05.726Z,6.90
2018-12-19T07:33:44.659Z,6.90
2018-12-19T07:38:23.484Z,6.90
2018-12-19T07:43:02.321Z,6.90
2018-12-19T07:47:41.166Z,6.90
2018-12-19T07:52:19.977Z,7.00
2018-12-19T07:56:58.756Z,7.00
2018-12-19T08:01:37.591Z,7.00
2018-12-19T08:06:16.352Z,7.10
2018-12-19T08:10:55.029Z,7.20
2018-12-19T08:15:33.649Z,7.20
2018-12-19T08:20:12.452Z,7.30
2018-12-19T08:24:51.107Z,7.30
2018-12-19T08:29:30.375Z,7.30
2018-12-19T08:34:09.422Z,7.30
2018-12-19T08:38:48.333Z,7.30
2018-12-19T08:43:27.172Z,7.40
2018-12-19T08:48:05.853Z,7.50
2018-12-19T08:52:44.841Z,7.60
2018-12-19T08:57:23.563Z,7.70
2018-12-19T09:02:02.344Z,7.80
2018-12-19T09:06:41.259Z,7.70
2018-12-19T09:11:20.137Z,7.70
2018-12-19T09:15:59.203Z,7.80
2018-12-19T09:20:38.218Z,7.90
2018-12-19T09:25:17.149Z,8.00
2018-12-19T09:29:56.032Z,8.20
2018-12-19T09:34:35.104Z,8.40
2018-12-19T09:39:14.085Z,8.50
2018-12-19T09:43:52.980Z,8.50
2018-12-19T09:48:31.935Z,8.50
2018-12-19T09:53:10.785Z,8.30
2018-12-19T09:57:49.541Z,8.50
2018-12-19T10:02:28.347Z,8.50
2018-12-19T10:07:07.140Z,8.60
2018-12-19T10:11:45.911Z,8.50
2018-12-19T10:16:24.665Z,8.80
2018-12-19T10:21:03.527Z,9.20
2018-12-19T10:25:42.291Z,9.50
2018-12-19T10:30:21.203Z,9.50
2018-12-19T10:35:01.110Z,9.40
2018-12-19T10:39:40.028Z,9.60
2018-12-19T10:44:18.812Z,9.60
2018-12-19T10:48:57.476Z,9.60
2018-12-19T10:53:36.306Z,9.60
2018-12-19T10:58:15.196Z,9.60
2018-12-19T11:02:53.991Z,9.60
2018-12-19T11:07:33.355Z,10.10
2018-12-19T11:12:12.123Z,10.30
2018-12-19T11:16:50.849Z,10.30
2018-12-19T11:21:29.841Z,10.20
2018-12-19T11:26:08.917Z,10.00
2018-12-19T11:30:47.751Z,9.80
2018-12-19T11:35:26.791Z,9.80
2018-12-19T11:40:07.491Z,9.70
2018-12-19T11:44:46.096Z,9.70
2018-12-19T11:49:24.815Z,9.60
2018-12-19T11:54:03.611Z,9.60
2018-12-19T11:58:42.440Z,9.50
2018-12-19T12:03:21.372Z,9.50
2018-12-19T12:08:00.120Z,9.50
2018-12-19T12:12:38.839Z,9.50
2018-12-19T12:17:17.705Z,9.50
2018-12-19T12:21:56.423Z,9.70
2018-12-19T12:26:35.159Z,10.00
2018-12-19T12:31:14.203Z,10.20
2018-12-19T12:35:56.716Z,10.40
2018-12-19T12:40:36.581Z,10.60
2018-12-19T12:45:16.905Z,10.80
2018-12-19T12:49:55.540Z,10.90
2018-12-19T12:54:34.297Z,10.70
2018-12-19T12:59:13.113Z,10.50
2018-12-19T13:03:52.006Z,10.30
2018-12-19T13:08:31.088Z,10.20
2018-12-19T13:13:09.908Z,10.30
2018-12-19T13:17:48.983Z,10.20
2018-12-19T13:22:27.712Z,10.20
2018-12-19T13:27:06.363Z,10.30
2018-12-19T13:31:46.040Z,10.50
2018-12-19T13:36:24.712Z,10.40
2018-12-19T13:41:03.598Z,10.20
2018-12-19T13:45:42.515Z,9.90
2018-12-19T13:50:21.260Z,9.70
2018-12-19T13:54:59.948Z,9.50
2018-12-19T13:59:40.244Z,9.30
2018-12-19T14:04:19.452Z,9.10
2018-12-19T14:08:58.251Z,9.10
2018-12-19T14:13:37.052Z,9.10
2018-12-19T14:18:15.840Z,9.10
2018-12-19T14:22:54.623Z,9.10
2018-12-19T14:27:34.071Z,9.10
2018-12-19T14:32:13.933Z,9.10
2018-12-19T14:36:52.782Z,9.10
2018-12-19T14:41:31.438Z,9.10
2018-12-19T14:46:10.148Z,9.00
2018-12-19T14:50:49.020Z,9.00
2018-12-19T14:55:27.756Z,9.00
2018-12-19T15:00:10.252Z,9.00
2018-12-19T15:04:48.993Z,8.90
2018-12-19T15:09:28.131Z,8.90
2018-12-19T15:14:07.664Z,8.90
2018-12-19T15:18:46.655Z,8.80
2018-12-19T15:23:25.692Z,8.80
2018-12-19T15:28:04.313Z,8.70
2018-12-19T15:32:43.338Z,8.70
2018-12-19T15:37:22.255Z,8.70
2018-12-19T15:42:00.997Z,8.70
2018-12-19T15:46:39.842Z,8.60
2018-12-19T15:51:18.709Z,8.60
2018-12-19T15:55:57.602Z,8.60
2018-12-19T16:00:36.640Z,8.60
2018-12-19T16:05:17.209Z,8.60
2018-12-19T16:09:56.250Z,8.50
2018-12-19T16:14:35.052Z,8.50
2018-12-19T16:19:13.951Z,8.50
2018-12-19T16:23:52.647Z,8.50
2018-12-19T16:28:31.542Z,8.40
2018-12-19T16:33:10.503Z,8.40
2018-12-19T16:37:49.466Z,8.40
2018-12-19T16:42:28.288Z,8.40
2018-12-19T16:47:07.038Z,8.40
2018-12-19T16:51:45.680Z,8.30
2018-12-19T16:56:24.308Z,8.30
2018-12-19T17:01:03.243Z,8.20
2018-12-19T17:05:41.952Z,8.20
2018-12-19T17:10:20.738Z,8.10
2018-12-19T17:15:00.573Z,8.00
2018-12-19T17:19:39.715Z,7.90
2018-12-19T17:24:18.693Z,7.90
2018-12-19T17:28:57.577Z,7.90
2018-12-19T17:33:36.353Z,7.90
2018-12-19T17:38:15.213Z,7.90
2018-12-19T17:42:59.368Z,7.80
2018-12-19T17:47:34.718Z,7.90
2018-12-19T17:52:13.813Z,7.90
2018-12-19T17:56:52.707Z,7.90
2018-12-19T18:01:31.679Z,7.90
2018-12-19T18:06:10.355Z,8.00
2018-12-19T18:10:49.096Z,8.00
2018-12-19T18:15:27.903Z,8.00
2018-12-19T18:20:06.972Z,8.00
2018-12-19T18:24:45.803Z,8.00
2018-12-19T18:29:24.652Z,8.00
2018-12-19T18:34:03.998Z,8.00
2018-12-19T18:38:42.608Z,8.00
2018-12-19T18:43:21.380Z,8.00
2018-12-19T18:48:00.145Z,8.00
2018-12-19T18:52:39.000Z,8.00
2018-12-19T18:57:17.887Z,8.00
2018-12-19T19:01:56.783Z,7.90
2018-12-19T19:06:35.809Z,8.00
2018-12-19T19:11:14.752Z,7.90
2018-12-19T19:15:54.006Z,7.90
2018-12-19T19:20:32.947Z,7.90
2018-12-19T19:25:11.671Z,7.80
2018-12-19T19:29:50.517Z,7.80
2018-12-19T19:34:29.176Z,7.80
2018-12-19T19:39:08.158Z,7.80
2018-12-19T19:43:48.141Z,7.70
2018-12-19T19:48:26.928Z,7.70
2018-12-19T19:53:05.933Z,7.70
2018-12-19T19:57:44.804Z,7.70
2018-12-19T20:02:23.672Z,7.70
2018-12-19T20:07:02.345Z,7.70
2018-12-19T20:11:41.135Z,7.60
2018-12-19T20:16:19.908Z,7.60
2018-12-19T20:20:58.616Z,7.50
2018-12-19T20:25:37.551Z,7.40
2018-12-19T20:30:16.357Z,7.20
2018-12-19T20:34:55.319Z,7.10
2018-12-19T20:39:33.969Z,7.00
2018-12-19T20:44:12.840Z,6.80
2018-12-19T20:48:52.460Z,6.70
2018-12-19T20:53:31.271Z,6.60
2018-12-19T20:58:10.268Z,6.40
2018-12-19T21:02:49.206Z,6.30
2018-12-19T21:07:28.173Z,6.20
2018-12-19T21:12:06.972Z,6.10
2018-12-19T21:16:51.582Z,6.00
2018-12-19T21:21:30.412Z,5.80
2018-12-19T21:26:09.440Z,5.60
2018-12-19T21:30:48.615Z,5.50
2018-12-19T21:35:27.508Z,5.30
2018-12-19T21:40:06.339Z,5.20
2018-12-19T21:44:46.066Z,5.20
2018-12-19T21:49:24.944Z,5.20
2018-12-19T21:54:04.237Z,5.10
2018-12-19T21:58:43.390Z,4.90
2018-12-19T22:03:22.146Z,4.80
2018-12-19T22:08:01.000Z,4.70
2018-12-19T22:12:40.101Z,4.70
2018-12-19T22:17:24.782Z,4.80
2018-12-19T22:22:03.787Z,4.80
2018-12-19T22:26:43.052Z,4.80
2018-12-19T22:31:21.985Z,4.90
2018-12-19T22:36:00.964Z,5.00
2018-12-19T22:40:41.218Z,5.10
2018-12-19T22:45:20.467Z,5.10
2018-12-19T22:50:00.376Z,5.20
2018-12-19T22:54:47.027Z,5.30
2018-12-19T22:59:26.466Z,5.40
2018-12-19T23:04:06.557Z,5.50
2018-12-19T23:08:45.674Z,5.60
2018-12-19T23:13:24.691Z,5.80
2018-12-19T23:18:09.736Z,6.00
2018-12-19T23:22:49.322Z,6.10
2018-12-19T23:27:28.363Z,6.20
2018-12-19T23:32:07.223Z,6.30
2018-12-19T23:36:46.062Z,6.40
2018-12-19T23:41:24.995Z,6.40
2018-12-19T23:46:04.062Z,6.40
2018-12-19T23:50:42.971Z,6.40
2018-12-19T23:55:21.830Z,6.40
